Time;durP1;ratioP1;P1;durP2;ratioP2;P2;SDS_P1;SDS_P2;PMS_P1;PMS_P2;Temp;Humidity;BMP_temperature;BMP_pressure;BME280_temperature;BME280_humidity;BME280_pressure;Samples;Min_cycle;Max_cycle;Signal;HPM_P1;HPM_P2
2021/06/16 00:01:46;;;;;;;;;;;;;;;10.91;100.00;101284.22;4995197;28;19984;-73
2021/06/16 00:04:12;;;;;;;;;;;;;;;10.81;100.00;101290.31;4995183;28;19926;-74
2021/06/16 00:06:39;;;;;;;;;;;;;;;10.74;100.00;101291.72;4995024;28;20353;-73
2021/06/16 00:09:06;;;;;;;;;;;;;;;10.69;100.00;101286.66;4994935;28;19980;-73
2021/06/16 00:11:32;;;;;;;;;;;;;;;10.64;100.00;101291.53;4994452;28;19980;-74
2021/06/16 00:14:00;;;;;;;;;;;;;;;10.63;100.00;101297.09;4994811;28;20397;-75
2021/06/16 00:16:26;;;;;;;;;;;;;;;10.59;100.00;101301.00;4994366;28;19965;-74
2021/06/16 00:18:52;;;;;;;;;;;;;;;10.62;100.00;101300.78;4993864;28;19925;-74
2021/06/16 00:21:20;;;;;;;;;;;;;;;10.60;100.00;101303.59;4994720;28;20447;-74
2021/06/16 00:23:47;;;;;;;;;;;;;;;10.60;100.00;101302.75;4993339;28;19937;-74
2021/06/16 00:26:13;;;;;;;;;;;;;;;10.57;100.00;101297.50;4993410;28;19992;-74
2021/06/16 00:28:39;;;;;;;;;;;;;;;10.46;100.00;101311.88;4994368;28;20376;-74
2021/06/16 00:31:07;;;;;;;;;;;;;;;10.42;100.00;101310.34;4994529;28;19929;-74
2021/06/16 00:33:33;;;;;;;;;;;;;;;10.41;100.00;101311.31;4994187;28;19938;-74
2021/06/16 00:36:00;;;;;;;;;;;;;;;10.41;100.00;101314.03;4994608;28;20342;-74
2021/06/16 00:38:27;;;;;;;;;;;;;;;10.36;100.00;101307.09;4994612;28;20365;-74
2021/06/16 00:40:53;;;;;;;;;;;;;;;10.33;100.00;101312.72;4994242;28;19988;-74
2021/06/16 00:43:19;;;;;;;;;;;;;;;10.28;100.00;101306.75;4994168;28;20638;-75
2021/06/16 00:45:46;;;;;;;;;;;;;;;10.20;100.00;101301.84;4994209;28;19931;-74
2021/06/16 00:48:13;;;;;;;;;;;;;;;10.14;100.00;101307.72;4994294;28;19969;-73
2021/06/16 00:50:40;;;;;;;;;;;;;;;10.10;100.00;101297.19;4994353;28;19995;-74
2021/06/16 00:53:06;;;;;;;;;;;;;;;10.07;100.00;101305.53;4993700;28;19976;-73
2021/06/16 00:55:37;;;;;;;;;;;;;;;10.02;100.00;101306.72;4994105;28;20452;-74
2021/06/16 00:58:03;;;;;;;;;;;;;;;10.00;100.00;101305.09;4993831;28;19925;-74
2021/06/16 01:00:32;;;;;;;;;;;;;;;9.98;100.00;101307.03;4994074;28;19926;-74
2021/06/16 01:03:02;;;;;;;;;;;;;;;10.01;100.00;101309.56;4993750;28;19969;-74
2021/06/16 01:05:34;;;;;;;;;;;;;;;10.00;100.00;101305.97;4993484;28;19926;-73
2021/06/16 01:08:02;;;;;;;;;;;;;;;9.92;100.00;101302.06;4994348;28;19964;-74
2021/06/16 01:10:29;;;;;;;;;;;;;;;9.83;100.00;101307.13;4993742;28;19965;-73
2021/06/16 01:13:00;;;;;;;;;;;;;;;9.81;100.00;101306.38;4992385;28;19930;-74
2021/06/16 01:15:28;;;;;;;;;;;;;;;9.78;100.00;101306.59;4993521;28;19929;-74
2021/06/16 01:17:56;;;;;;;;;;;;;;;9.71;100.00;101298.00;4993719;28;19932;-74
2021/06/16 01:20:32;;;;;;;;;;;;;;;9.68;100.00;101309.03;4993410;28;20357;-73
2021/06/16 01:23:13;;;;;;;;;;;;;;;9.63;100.00;101302.22;4992901;28;19926;-73
2021/06/16 01:25:45;;;;;;;;;;;;;;;9.62;100.00;101308.59;4991168;28;20377;-73
2021/06/16 01:28:13;;;;;;;;;;;;;;;9.62;100.00;101314.00;4993204;28;19965;-73
2021/06/16 01:30:41;;;;;;;;;;;;;;;9.60;100.00;101314.13;4993688;28;20401;-74
2021/06/16 01:33:07;;;;;;;;;;;;;;;9.59;100.00;101314.25;4992964;28;19988;-74
2021/06/16 01:35:36;;;;;;;;;;;;;;;9.54;100.00;101319.97;4993249;28;19953;-74
2021/06/16 01:38:04;;;;;;;;;;;;;;;9.52;100.00;101316.50;4993436;28;19930;-73
2021/06/16 01:40:30;;;;;;;;;;;;;;;9.45;100.00;101313.31;4993127;28;20436;-74
2021/06/16 01:42:58;;;;;;;;;;;;;;;9.44;100.00;101308.03;4993094;28;19962;-73
2021/06/16 01:45:26;;;;;;;;;;;;;;;9.35;100.00;101318.50;4992831;28;19980;-74
2021/06/16 01:47:53;;;;;;;;;;;;;;;9.32;100.00;101317.84;4993271;28;19933;-74
2021/06/16 01:50:20;;;;;;;;;;;;;;;9.26;100.00;101315.50;4992143;28;19968;-73
2021/06/16 01:52:48;;;;;;;;;;;;;;;9.19;100.00;101321.38;4992995;28;20003;-74
2021/06/16 01:55:15;;;;;;;;;;;;;;;9.12;100.00;101324.56;4992824;28;20439;-73
2021/06/16 01:57:44;;;;;;;;;;;;;;;9.11;100.00;101322.81;4992590;28;19957;-73
2021/06/16 02:00:11;;;;;;;;;;;;;;;9.07;100.00;101318.59;4993003;28;19973;-73
2021/06/16 02:02:39;;;;;;;;;;;;;;;9.01;100.00;101319.84;4992568;28;19972;-74
2021/06/16 02:05:06;;;;;;;;;;;;;;;8.97;100.00;101326.44;4992754;28;19980;-73
2021/06/16 02:07:38;;;;;;;;;;;;;;;8.90;100.00;101325.09;4992845;28;19961;-73
2021/06/16 02:10:06;;;;;;;;;;;;;;;8.84;100.00;101318.22;4992508;28;20397;-73
2021/06/16 02:12:33;;;;;;;;;;;;;;;8.81;100.00;101316.59;4992047;28;20397;-73
2021/06/16 02:15:02;;;;;;;;;;;;;;;8.83;100.00;101322.78;4992000;28;20016;-74
2021/06/16 02:17:29;;;;;;;;;;;;;;;8.83;100.00;101324.63;4992248;28;20401;-74
2021/06/16 02:19:57;;;;;;;;;;;;;;;8.71;100.00;101321.75;4992544;28;20020;-73
2021/06/16 02:22:24;;;;;;;;;;;;;;;8.67;100.00;101325.63;4991573;28;20308;-74
2021/06/16 02:24:51;;;;;;;;;;;;;;;8.72;100.00;101328.00;4991786;28;19960;-73
2021/06/16 02:27:17;;;;;;;;;;;;;;;8.66;100.00;101323.00;4991905;28;19965;-73
2021/06/16 02:29:44;;;;;;;;;;;;;;;8.73;100.00;101321.63;4992462;28;20412;-74
2021/06/16 02:32:10;;;;;;;;;;;;;;;8.67;100.00;101319.31;4992155;28;19925;-73
2021/06/16 02:34:37;;;;;;;;;;;;;;;8.64;100.00;101324.94;4991722;28;19938;-73
2021/06/16 02:37:06;;;;;;;;;;;;;;;8.58;100.00;101315.38;4992177;28;20028;-73
2021/06/16 02:39:35;;;;;;;;;;;;;;;8.57;100.00;101312.75;4992143;28;20405;-73
2021/06/16 02:42:02;;;;;;;;;;;;;;;8.60;100.00;101318.84;5007165;28;19965;-73
2021/06/16 02:44:29;;;;;;;;;;;;;;;8.56;100.00;101321.84;4992065;28;20286;-73
2021/06/16 02:46:56;;;;;;;;;;;;;;;8.49;100.00;101316.81;4992165;28;19953;-73
2021/06/16 02:49:25;;;;;;;;;;;;;;;8.49;100.00;101327.63;4992184;28;20406;-73
2021/06/16 02:51:52;;;;;;;;;;;;;;;8.49;100.00;101319.50;4991299;28;19968;-73
2021/06/16 02:54:20;;;;;;;;;;;;;;;8.48;100.00;101323.19;4991757;28;20019;-73
2021/06/16 02:56:47;;;;;;;;;;;;;;;8.47;100.00;101329.59;4991695;28;19972;-73
2021/06/16 02:59:15;;;;;;;;;;;;;;;8.50;100.00;101332.09;4990696;28;20356;-74
2021/06/16 03:01:43;;;;;;;;;;;;;;;8.54;100.00;101330.91;4991985;28;19970;-73
2021/06/16 03:04:10;;;;;;;;;;;;;;;8.59;100.00;101319.81;4991630;28;20379;-73
2021/06/16 03:06:36;;;;;;;;;;;;;;;8.65;100.00;101327.53;4992076;28;19968;-73
2021/06/16 03:09:03;;;;;;;;;;;;;;;8.69;100.00;101323.66;4990407;28;20033;-73
2021/06/16 03:11:32;;;;;;;;;;;;;;;8.69;100.00;101318.25;4991712;28;19964;-73
2021/06/16 03:13:59;;;;;;;;;;;;;;;8.72;100.00;101322.59;4991785;28;19973;-74
2021/06/16 03:16:26;;;;;;;;;;;;;;;8.76;100.00;101331.41;4991785;28;20419;-73
2021/06/16 03:18:53;;;;;;;;;;;;;;;8.81;100.00;101322.00;4991903;28;20377;-73
2021/06/16 03:21:19;;;;;;;;;;;;;;;8.88;100.00;101322.47;4991454;28;19984;-74
2021/06/16 03:23:48;;;;;;;;;;;;;;;8.98;100.00;101320.03;4991841;28;19926;-73
2021/06/16 03:26:16;;;;;;;;;;;;;;;9.05;100.00;101318.69;4994298;28;19929;-73
2021/06/16 03:28:44;;;;;;;;;;;;;;;9.12;100.00;101311.88;4995777;28;19965;-73
2021/06/16 03:31:12;;;;;;;;;;;;;;;9.19;100.00;101310.53;4995597;28;20404;-73
2021/06/16 03:33:39;;;;;;;;;;;;;;;9.25;100.00;101311.09;4993955;28;20024;-73
2021/06/16 03:36:06;;;;;;;;;;;;;;;9.32;100.00;101305.13;4995555;28;20356;-73
2021/06/16 03:38:33;;;;;;;;;;;;;;;9.45;100.00;101301.63;4995468;28;19932;-73
2021/06/16 03:40:59;;;;;;;;;;;;;;;9.55;100.00;101298.19;4995477;28;19957;-73
2021/06/16 03:43:26;;;;;;;;;;;;;;;9.67;100.00;101301.91;4995310;28;20016;-73
2021/06/16 03:45:54;;;;;;;;;;;;;;;9.82;100.00;101301.81;4995318;28;19964;-73
2021/06/16 03:48:22;;;;;;;;;;;;;;;9.94;100.00;101297.38;4995319;28;20012;-73
2021/06/16 03:50:48;;;;;;;;;;;;;;;10.06;100.00;101299.22;4995168;28;19929;-74
2021/06/16 03:53:16;;;;;;;;;;;;;;;10.20;100.00;101301.84;4995036;28;19925;-70
2021/06/16 03:55:43;;;;;;;;;;;;;;;10.36;100.00;101300.81;4994030;28;20016;-70
2021/06/16 03:58:09;;;;;;;;;;;;;;;10.52;100.00;101296.00;4993619;28;19980;-70
2021/06/16 04:00:36;;;;;;;;;;;;;;;10.67;100.00;101293.16;4994186;28;19972;-70
2021/06/16 04:03:05;;;;;;;;;;;;;;;10.81;100.00;101294.84;4993829;28;19988;-70
2021/06/16 04:05:32;;;;;;;;;;;;;;;10.92;100.00;101280.53;4993690;28;19969;-69
2021/06/16 04:07:58;;;;;;;;;;;;;;;11.10;100.00;101287.28;4996739;28;19984;-68
2021/06/16 04:10:26;;;;;;;;;;;;;;;11.30;100.00;101284.91;4993544;28;20016;-69
2021/06/16 04:12:52;;;;;;;;;;;;;;;11.49;100.00;101277.13;4993159;28;20352;-69
2021/06/16 04:15:19;;;;;;;;;;;;;;;11.68;100.00;101278.41;4988915;28;19957;-69
2021/06/16 04:17:46;;;;;;;;;;;;;;;11.93;100.00;101285.50;4974186;28;19957;-69
2021/06/16 04:20:14;;;;;;;;;;;;;;;12.14;100.00;101279.41;4973727;28;20030;-69
2021/06/16 04:22:40;;;;;;;;;;;;;;;12.33;100.00;101276.09;4973703;28;20016;-69
2021/06/16 04:25:08;;;;;;;;;;;;;;;12.55;100.00;101284.28;4989468;28;20455;-69
2021/06/16 04:27:34;;;;;;;;;;;;;;;12.69;100.00;101276.84;4992909;28;20428;-69
2021/06/16 04:30:01;;;;;;;;;;;;;;;12.84;100.00;101278.31;4994188;28;19984;-69
2021/06/16 04:32:27;;;;;;;;;;;;;;;12.96;100.00;101281.88;5003592;28;19930;-69
2021/06/16 04:34:53;;;;;;;;;;;;;;;13.08;100.00;101271.84;5003042;28;20468;-65
2021/06/16 04:37:21;;;;;;;;;;;;;;;13.20;100.00;101276.25;5012401;28;19960;-66
2021/06/16 04:39:48;;;;;;;;;;;;;;;13.35;100.00;101273.25;5023477;28;19941;-66
2021/06/16 04:42:14;;;;;;;;;;;;;;;13.51;100.00;101275.56;4999174;28;20025;-70
2021/06/16 04:44:40;;;;;;;;;;;;;;;13.61;100.00;101276.50;4992972;28;19969;-69
2021/06/16 04:47:07;;;;;;;;;;;;;;;13.72;100.00;101281.03;4993172;28;19965;-69
2021/06/16 04:49:33;;;;;;;;;;;;;;;13.82;100.00;101278.38;5008334;28;20013;-70
2021/06/16 04:51:59;;;;;;;;;;;;;;;13.93;100.00;101277.47;4992523;28;19926;-70
2021/06/16 04:54:27;;;;;;;;;;;;;;;14.01;100.00;101285.84;4967332;28;740604;-69
2021/06/16 04:56:53;;;;;;;;;;;;;;;14.11;100.00;101278.59;4993178;28;20015;-70
2021/06/16 04:59:19;;;;;;;;;;;;;;;14.21;100.00;101282.22;4994068;28;19969;-69
2021/06/16 05:01:46;;;;;;;;;;;;;;;14.32;100.00;101285.88;4993759;28;19971;-70
2021/06/16 05:04:12;;;;;;;;;;;;;;;14.44;100.00;101289.38;4993066;28;20037;-69
2021/06/16 05:06:38;;;;;;;;;;;;;;;14.57;100.00;101279.09;4992933;28;20384;-69
2021/06/16 05:09:05;;;;;;;;;;;;;;;14.64;100.00;101280.28;4992807;28;19988;-69
2021/06/16 05:11:33;;;;;;;;;;;;;;;14.74;100.00;101280.34;4993118;28;19985;-69
2021/06/16 05:13:59;;;;;;;;;;;;;;;14.85;100.00;101282.97;4992604;28;20312;-70
2021/06/16 05:16:25;;;;;;;;;;;;;;;15.00;100.00;101280.69;4993081;28;20040;-69
2021/06/16 05:18:51;;;;;;;;;;;;;;;15.06;100.00;101277.41;4993642;28;19988;-69
2021/06/16 05:21:18;;;;;;;;;;;;;;;15.19;100.00;101274.41;4993234;28;19933;-70
2021/06/16 05:23:44;;;;;;;;;;;;;;;15.33;100.00;101280.47;4993384;28;19960;-70
2021/06/16 05:26:10;;;;;;;;;;;;;;;15.39;100.00;101274.41;4999691;28;20027;-69
2021/06/16 05:28:38;;;;;;;;;;;;;;;15.47;100.00;101276.44;5012628;28;19960;-70
2021/06/16 05:31:05;;;;;;;;;;;;;;;15.47;100.00;101270.97;5003685;28;19961;-70
2021/06/16 05:33:31;;;;;;;;;;;;;;;15.61;100.00;101270.56;5003911;28;20292;-70
2021/06/16 05:35:58;;;;;;;;;;;;;;;15.80;100.00;101269.69;5012748;28;19980;-70
2021/06/16 05:38:24;;;;;;;;;;;;;;;16.00;100.00;101273.25;5003035;28;19957;-69
2021/06/16 05:40:51;;;;;;;;;;;;;;;16.27;100.00;101276.25;5012689;28;19936;-69
2021/06/16 05:43:17;;;;;;;;;;;;;;;16.40;100.00;101269.41;4998629;28;19980;-69
2021/06/16 05:45:44;;;;;;;;;;;;;;;16.53;100.00;101274.56;5009452;28;19926;-69
2021/06/16 05:48:11;;;;;;;;;;;;;;;16.48;100.00;101274.16;4999618;28;20020;-69
2021/06/16 05:50:37;;;;;;;;;;;;;;;16.72;100.00;101268.13;5008966;28;19996;-70
2021/06/16 05:53:03;;;;;;;;;;;;;;;16.89;100.00;101269.22;4991005;28;20029;-70
2021/06/16 05:55:30;;;;;;;;;;;;;;;17.01;100.00;101269.00;5001332;28;20014;-69
2021/06/16 05:57:56;;;;;;;;;;;;;;;17.20;100.00;101260.66;5010609;28;19925;-69
2021/06/16 06:00:23;;;;;;;;;;;;;;;17.51;100.00;101267.66;5010593;28;20455;-70
2021/06/16 06:02:51;;;;;;;;;;;;;;;17.87;100.00;101265.72;5012282;28;19926;-69
2021/06/16 06:05:18;;;;;;;;;;;;;;;18.12;100.00;101267.81;4996843;28;20029;-69
2021/06/16 06:07:45;;;;;;;;;;;;;;;18.45;100.00;101268.88;4992475;28;20016;-70
2021/06/16 06:10:11;;;;;;;;;;;;;;;18.91;100.00;101271.38;4992895;28;20024;-70
2021/06/16 06:12:37;;;;;;;;;;;;;;;19.29;100.00;101262.69;4992005;28;20361;-70
2021/06/16 06:15:05;;;;;;;;;;;;;;;19.74;95.49;101270.47;4992879;28;20094;-70
2021/06/16 06:17:34;;;;;;;;;;;;;;;20.29;91.96;101264.44;4992171;28;19933;-70
2021/06/16 06:20:01;;;;;;;;;;;;;;;20.63;86.42;101260.53;4993596;28;20564;-71
2021/06/16 06:22:27;;;;;;;;;;;;;;;21.05;82.41;101262.97;4992965;28;19965;-70
2021/06/16 06:24:54;;;;;;;;;;;;;;;21.46;81.11;101263.75;5011906;28;19976;-70
2021/06/16 06:27:20;;;;;;;;;;;;;;;21.71;73.78;101268.09;5011832;28;20371;-71
2021/06/16 06:29:47;;;;;;;;;;;;;;;21.94;71.05;101255.28;4992103;28;19925;-71
2021/06/16 06:32:13;;;;;;;;;;;;;;;22.34;71.83;101266.97;4992251;28;19930;-71
2021/06/16 06:34:39;;;;;;;;;;;;;;;22.61;68.52;101253.53;5005424;28;20024;-71
2021/06/16 06:37:07;;;;;;;;;;;;;;;22.83;67.06;101252.56;5000521;28;19925;-71
2021/06/16 06:39:33;;;;;;;;;;;;;;;23.28;64.38;101259.97;4999278;28;19992;-72
2021/06/16 06:42:00;;;;;;;;;;;;;;;23.45;61.07;101260.56;5006790;28;19926;-72
2021/06/16 06:44:26;;;;;;;;;;;;;;;23.76;60.67;101256.59;5011183;28;19965;-72
2021/06/16 06:46:52;;;;;;;;;;;;;;;23.97;60.06;101250.19;5011468;28;20024;-72
2021/06/16 06:49:19;;;;;;;;;;;;;;;24.30;59.14;101258.75;5011545;28;19936;-71
2021/06/16 06:51:45;;;;;;;;;;;;;;;24.43;52.66;101257.16;5011587;28;20419;-72
2021/06/16 06:54:12;;;;;;;;;;;;;;;24.39;52.18;101249.22;5011065;28;19964;-72
2021/06/16 06:56:39;;;;;;;;;;;;;;;24.24;51.30;101254.88;5011475;28;19933;-73
2021/06/16 06:59:05;;;;;;;;;;;;;;;24.32;52.96;101253.00;5010934;28;20038;-73
2021/06/16 07:01:32;;;;;;;;;;;;;;;24.46;52.44;101253.97;5011470;28;20287;-73
2021/06/16 07:04:01;;;;;;;;;;;;;;;24.47;51.27;101250.13;5011625;28;19925;-73
2021/06/16 07:06:27;;;;;;;;;;;;;;;24.56;49.59;101249.75;5011315;28;19925;-73
2021/06/16 07:08:53;;;;;;;;;;;;;;;24.88;50.83;101254.84;5011617;28;19925;-72
2021/06/16 07:11:21;;;;;;;;;;;;;;;25.02;49.07;101250.22;5009866;28;20028;-73
2021/06/16 07:13:47;;;;;;;;;;;;;;;25.10;47.46;101251.94;5011155;28;19933;-73
2021/06/16 07:16:14;;;;;;;;;;;;;;;25.10;48.23;101252.78;5011314;28;19961;-73
2021/06/16 07:18:40;;;;;;;;;;;;;;;25.52;48.12;101239.69;5010857;28;19967;-72
2021/06/16 07:21:06;;;;;;;;;;;;;;;25.45;47.45;101238.81;5011216;28;20008;-73
2021/06/16 07:23:33;;;;;;;;;;;;;;;25.75;48.52;101238.44;5010871;28;20316;-73
2021/06/16 07:25:59;;;;;;;;;;;;;;;25.92;45.97;101238.00;5011254;28;20024;-73
2021/06/16 07:28:26;;;;;;;;;;;;;;;26.20;45.35;101237.78;5011345;28;20259;-73
2021/06/16 07:30:53;;;;;;;;;;;;;;;26.30;45.26;101245.69;5010935;28;20372;-73
2021/06/16 07:33:19;;;;;;;;;;;;;;;26.29;42.87;101242.03;5010911;28;19972;-72
2021/06/16 07:35:45;;;;;;;;;;;;;;;26.46;45.00;101244.38;5009681;28;20008;-73
2021/06/16 07:38:12;;;;;;;;;;;;;;;26.43;44.72;101244.78;5011224;28;19968;-72
2021/06/16 07:40:38;;;;;;;;;;;;;;;26.63;44.93;101241.94;5011323;28;20016;-73
2021/06/16 07:43:04;;;;;;;;;;;;;;;26.86;44.85;101239.53;5010753;28;20021;-72
2021/06/16 07:45:32;;;;;;;;;;;;;;;26.51;43.78;101239.00;5011019;28;20308;-73
2021/06/16 07:47:59;;;;;;;;;;;;;;;26.84;43.63;101240.84;5010601;28;19976;-73
2021/06/16 07:50:27;;;;;;;;;;;;;;;27.16;42.35;101235.34;5010859;28;19979;-73
2021/06/16 07:52:53;;;;;;;;;;;;;;;27.11;42.95;101240.72;5010637;28;19929;-73
2021/06/16 07:55:20;;;;;;;;;;;;;;;27.25;43.19;101235.94;5010790;28;19968;-72
2021/06/16 07:57:46;;;;;;;;;;;;;;;27.30;42.68;101236.09;5010927;28;20008;-73
2021/06/16 08:00:13;;;;;;;;;;;;;;;26.90;42.52;101234.41;5010720;28;20332;-73
2021/06/16 08:02:41;;;;;;;;;;;;;;;26.91;42.08;101238.88;5010970;28;19930;-73
2021/06/16 08:05:08;;;;;;;;;;;;;;;27.27;42.35;101236.56;5009399;28;20304;-73
2021/06/16 08:07:34;;;;;;;;;;;;;;;27.52;43.19;101236.63;5010578;28;20490;-73
2021/06/16 08:10:00;;;;;;;;;;;;;;;28.13;40.95;101229.50;5010675;28;19925;-73
2021/06/16 08:12:27;;;;;;;;;;;;;;;27.98;40.35;101229.84;5013162;28;19968;-73
2021/06/16 08:14:53;;;;;;;;;;;;;;;27.69;40.33;101234.16;5014407;28;20397;-73
2021/06/16 08:17:19;;;;;;;;;;;;;;;27.97;41.61;101232.84;5013227;28;19929;-73
2021/06/16 08:19:47;;;;;;;;;;;;;;;28.29;40.16;101224.38;4993615;28;19961;-73
2021/06/16 08:22:14;;;;;;;;;;;;;;;28.69;40.95;101224.00;4994207;28;20020;-73
2021/06/16 08:24:41;;;;;;;;;;;;;;;28.63;39.36;101227.69;4994263;28;19980;-73
2021/06/16 08:27:09;;;;;;;;;;;;;;;28.97;40.10;101230.91;4994627;28;19976;-73
2021/06/16 08:29:35;;;;;;;;;;;;;;;28.86;38.23;101230.66;4994455;28;19932;-73
2021/06/16 08:32:02;;;;;;;;;;;;;;;29.17;39.41;101222.25;4994281;28;19926;-73
2021/06/16 08:34:28;;;;;;;;;;;;;;;29.60;38.65;101217.56;4994367;28;20016;-73
2021/06/16 08:36:56;;;;;;;;;;;;;;;29.59;37.60;101204.69;4994429;28;19957;-73
2021/06/16 08:39:23;;;;;;;;;;;;;;;29.54;38.01;101214.66;4994393;28;20012;-73
2021/06/16 08:41:49;;;;;;;;;;;;;;;29.43;37.72;101218.25;4993958;28;19972;-73
2021/06/16 08:44:16;;;;;;;;;;;;;;;29.21;39.29;101215.13;4993980;28;19930;-72
2021/06/16 08:46:42;;;;;;;;;;;;;;;28.93;36.92;101216.59;4994398;28;20020;-73
2021/06/16 08:49:09;;;;;;;;;;;;;;;28.25;37.54;101221.22;4993871;28;19964;-73
2021/06/16 08:51:35;;;;;;;;;;;;;;;28.36;38.97;101216.81;4994333;28;19961;-73
2021/06/16 08:54:03;;;;;;;;;;;;;;;28.47;37.99;101218.81;4993458;28;20037;-73
2021/06/16 08:56:29;;;;;;;;;;;;;;;28.58;38.30;101219.16;4994138;28;19988;-73
2021/06/16 08:58:56;;;;;;;;;;;;;;;28.27;37.71;101215.41;4994085;28;19961;-73
2021/06/16 09:01:22;;;;;;;;;;;;;;;28.25;38.76;101217.56;4993452;28;19926;-73
2021/06/16 09:03:49;;;;;;;;;;;;;;;29.05;38.49;101211.91;4994189;28;20465;-73
2021/06/16 09:06:16;;;;;;;;;;;;;;;29.22;38.03;101212.09;4993535;28;19925;-72
2021/06/16 09:08:52;;;;;;;;;;;;;;;29.09;36.82;101214.22;4992782;28;19926;-73
2021/06/16 09:11:21;;;;;;;;;;;;;;;29.36;37.91;101211.94;4993545;28;19933;-73
2021/06/16 09:13:47;;;;;;;;;;;;;;;29.97;36.96;101211.78;4993782;28;19961;-73
2021/06/16 09:16:27;;;;;;;;;;;;;;;30.20;35.76;101211.81;4993671;28;20054;-73
2021/06/16 09:18:53;;;;;;;;;;;;;;;30.01;36.24;101211.09;4993096;28;19926;-73
2021/06/16 09:21:31;;;;;;;;;;;;;;;30.12;36.38;101214.97;4993567;28;20020;-73
2021/06/16 09:23:57;;;;;;;;;;;;;;;30.22;34.67;101212.38;4990734;28;19960;-73
2021/06/16 09:26:29;;;;;;;;;;;;;;;29.45;35.74;101204.91;5001704;28;20435;-72
2021/06/16 09:28:56;;;;;;;;;;;;;;;29.53;35.47;101212.06;5010713;28;19949;-74
2021/06/16 09:31:23;;;;;;;;;;;;;;;28.71;35.59;101210.63;4993336;28;20285;-71
2021/06/16 09:33:50;;;;;;;;;;;;;;;28.23;36.94;101207.50;4999738;28;19925;-73
2021/06/16 09:36:16;;;;;;;;;;;;;;;28.95;35.99;101205.19;5012457;28;19933;-73
2021/06/16 09:38:46;;;;;;;;;;;;;;;29.28;34.63;101207.53;5013103;28;20301;-73
2021/06/16 09:41:12;;;;;;;;;;;;;;;29.39;35.72;101197.47;5012954;28;20296;-73
2021/06/16 09:43:40;;;;;;;;;;;;;;;30.10;33.11;101197.56;5012600;28;20313;-73
2021/06/16 09:46:07;;;;;;;;;;;;;;;30.13;32.92;101202.69;5012648;28;19971;-73
2021/06/16 09:48:35;;;;;;;;;;;;;;;30.25;33.76;101207.41;5012842;28;20148;-73
2021/06/16 09:51:12;;;;;;;;;;;;;;;30.31;31.82;101200.84;5012621;28;20028;-73
2021/06/16 09:53:58;;;;;;;;;;;;;;;30.83;31.80;101198.06;5012037;28;20389;-73
2021/06/16 09:56:25;;;;;;;;;;;;;;;31.07;31.61;101192.41;5012313;28;19980;-72
2021/06/16 09:58:53;;;;;;;;;;;;;;;31.02;30.42;101193.09;5012598;28;20028;-73
2021/06/16 10:01:20;;;;;;;;;;;;;;;30.77;31.58;101187.00;5012262;28;19929;-73
2021/06/16 10:03:46;;;;;;;;;;;;;;;31.05;30.42;101180.56;5012347;28;20020;-73
2021/06/16 10:06:14;;;;;;;;;;;;;;;31.57;30.77;101185.16;5001625;28;20397;-72
2021/06/16 10:08:42;;;;;;;;;;;;;;;30.95;29.09;101177.53;4999324;28;20357;-72
2021/06/16 10:11:09;;;;;;;;;;;;;;;31.16;29.28;101176.88;4976984;28;19973;-72
2021/06/16 10:13:37;;;;;;;;;;;;;;;31.36;28.69;101173.59;4992408;28;19969;-74
2021/06/16 10:16:06;;;;;;;;;;;;;;;31.47;29.14;101170.94;4996922;28;19972;-71
2021/06/16 10:18:34;;;;;;;;;;;;;;;30.78;29.20;101172.75;5009777;28;20023;-71
2021/06/16 10:21:01;;;;;;;;;;;;;;;30.82;30.35;101171.13;4992540;28;19926;-71
2021/06/16 10:23:27;;;;;;;;;;;;;;;31.25;29.89;101170.84;5003540;28;20020;-71
2021/06/16 10:26:00;;;;;;;;;;;;;;;31.39;28.17;101156.25;4993296;28;19949;-71
2021/06/16 10:28:31;;;;;;;;;;;;;;;31.13;28.69;101159.72;4992562;28;19926;-71
2021/06/16 10:30:58;;;;;;;;;;;;;;;31.05;28.50;101149.75;5000213;28;20035;-71
2021/06/16 10:33:29;;;;;;;;;;;;;;;30.97;28.55;101148.16;5011430;28;19964;-71
2021/06/16 10:36:23;;;;;;;;;;;;;;;31.20;29.40;101149.16;5002708;28;19926;-72
2021/06/16 10:39:10;;;;;;;;;;;;;;;30.41;29.92;101147.00;4966782;28;19925;-71
2021/06/16 10:41:54;;;;;;;;;;;;;;;30.31;30.65;101142.91;4991969;28;20024;-71
2021/06/16 10:44:20;;;;;;;;;;;;;;;30.79;29.71;101140.84;4991582;28;19925;-71
2021/06/16 10:46:51;;;;;;;;;;;;;;;31.28;28.70;101142.31;5004590;28;19929;-71
2021/06/16 10:49:50;;;;;;;;;;;;;;;31.26;28.34;101138.94;5009567;28;20344;-71
2021/06/16 10:52:17;;;;;;;;;;;;;;;31.62;26.49;101139.56;5011119;28;20093;-72
2021/06/16 10:54:52;;;;;;;;;;;;;;;31.09;28.07;101139.72;5011090;28;20019;-71
2021/06/16 10:57:19;;;;;;;;;;;;;;;30.97;27.71;101130.50;4972520;28;19930;-70
2021/06/16 11:00:00;;;;;;;;;;;;;;;30.98;30.07;101127.44;4971570;28;19973;-71
2021/06/16 11:02:45;;;;;;;;;;;;;;;31.26;28.57;101124.91;4972174;28;19926;-71
2021/06/16 11:05:22;;;;;;;;;;;;;;;31.41;29.01;101124.31;4976259;28;19932;-71
2021/06/16 11:07:49;;;;;;;;;;;;;;;30.97;28.35;101133.31;5011189;28;20308;-71
2021/06/16 11:10:15;;;;;;;;;;;;;;;31.03;29.08;101127.59;5009045;28;19991;-71
2021/06/16 11:12:42;;;;;;;;;;;;;;;31.60;29.21;101122.97;4991535;28;19984;-71
2021/06/16 11:15:10;;;;;;;;;;;;;;;31.90;30.74;101127.34;4991274;28;20444;-71
2021/06/16 11:17:44;;;;;;;;;;;;;;;31.89;28.31;101120.88;5011286;28;19965;-71
2021/06/16 11:20:11;;;;;;;;;;;;;;;32.25;28.18;101122.53;4999183;28;19984;-71
2021/06/16 11:22:46;;;;;;;;;;;;;;;32.37;26.81;101120.44;4994781;28;19926;-71
2021/06/16 11:25:24;;;;;;;;;;;;;;;32.15;27.25;101118.44;5001992;28;19977;-71
2021/06/16 11:27:55;;;;;;;;;;;;;;;31.88;29.10;101118.34;5011337;28;19926;-71
2021/06/16 11:30:32;;;;;;;;;;;;;;;31.17;27.23;101116.88;4999022;28;19933;-71
2021/06/16 11:33:17;;;;;;;;;;;;;;;31.26;29.20;101106.13;4991473;28;20165;-71
2021/06/16 11:35:45;;;;;;;;;;;;;;;31.68;29.46;101102.03;5004774;28;19925;-71
2021/06/16 11:38:24;;;;;;;;;;;;;;;31.42;28.25;101098.81;5011147;28;20401;-71
2021/06/16 11:40:51;;;;;;;;;;;;;;;31.87;28.37;101097.00;4996822;28;20420;-71
2021/06/16 11:43:27;;;;;;;;;;;;;;;31.89;28.80;101104.03;4991051;28;19926;-71
2021/06/16 11:45:53;;;;;;;;;;;;;;;32.43;28.10;101102.56;5004060;28;19929;-71
2021/06/16 11:48:19;;;;;;;;;;;;;;;32.34;27.34;101090.06;5014333;28;20543;-72
2021/06/16 11:50:46;;;;;;;;;;;;;;;32.27;27.63;101090.28;5002451;28;19957;-71
2021/06/16 11:53:13;;;;;;;;;;;;;;;32.57;27.00;101090.91;5004856;28;19966;-71
2021/06/16 11:55:40;;;;;;;;;;;;;;;32.58;26.37;101081.34;5004793;28;20436;-71
2021/06/16 11:58:20;;;;;;;;;;;;;;;32.81;26.59;101078.25;4995275;28;19925;-71
2021/06/16 12:00:46;;;;;;;;;;;;;;;32.98;26.60;101080.97;5004076;28;19933;-71
2021/06/16 12:03:15;;;;;;;;;;;;;;;32.91;27.18;101080.31;5012840;28;20003;-71
2021/06/16 12:05:41;;;;;;;;;;;;;;;32.31;26.89;101082.16;4975937;28;20421;-72
2021/06/16 12:08:07;;;;;;;;;;;;;;;32.03;27.79;101078.44;4998459;28;19936;-71
2021/06/16 12:10:35;;;;;;;;;;;;;;;32.19;27.31;101071.06;4998130;28;19926;-71
2021/06/16 12:13:05;;;;;;;;;;;;;;;32.54;27.18;101070.63;5005928;28;19925;-72
2021/06/16 12:15:32;;;;;;;;;;;;;;;32.99;26.69;101060.19;5013017;28;19925;-72
2021/06/16 12:18:00;;;;;;;;;;;;;;;33.01;26.02;101054.28;4998424;28;19969;-70
2021/06/16 12:20:27;;;;;;;;;;;;;;;33.10;25.65;101051.81;4997733;28;19926;-72
2021/06/16 12:22:54;;;;;;;;;;;;;;;33.34;26.51;101043.88;4994094;28;19929;-70
2021/06/16 12:25:28;;;;;;;;;;;;;;;32.31;26.16;101054.06;5011421;28;19925;-68
2021/06/16 12:27:55;;;;;;;;;;;;;;;31.14;26.93;101050.13;5007883;28;20024;-70
2021/06/16 12:30:22;;;;;;;;;;;;;;;31.77;27.66;101044.38;4994276;28;19933;-70
2021/06/16 12:33:11;;;;;;;;;;;;;;;32.19;27.50;101051.41;4993986;28;19929;-70
2021/06/16 12:35:42;;;;;;;;;;;;;;;31.70;26.36;101041.75;4995302;28;19926;-70
2021/06/16 12:38:08;;;;;;;;;;;;;;;31.93;27.59;101037.03;4995138;28;20012;-69